Time;durP1;ratioP1;P1;durP2;ratioP2;P2;SDS_P1;SDS_P2;PMS_P1;PMS_P2;Temp;Humidity;BMP_temperature;BMP_pressure;BME280_temperature;BME280_humidity;BME280_pressure;Samples;Min_cycle;Max_cycle;Signal;HPM_P1;HPM_P2
2021/12/23 00:01:39;;;;;;;38.88;24.55;;;;;;;-2.38;92.89;101740.00;5053552;28;20052;-91
2021/12/23 00:04:05;;;;;;;39.72;24.48;;;;;;;-2.38;92.58;101740.84;5053731;28;20036;-91
2021/12/23 00:06:30;;;;;;;40.65;24.17;;;;;;;-2.43;92.78;101724.81;5053547;28;20484;-83
2021/12/23 00:08:59;;;;;;;40.58;24.42;;;;;;;-2.57;92.37;101690.16;5054292;28;20071;-91
2021/12/23 00:11:25;;;;;;;37.58;23.63;;;;;;;-2.43;92.56;101709.63;5052619;28;20028;-91
2021/12/23 00:14:00;;;;;;;39.83;24.30;;;;;;;-2.50;92.40;101684.31;5052298;28;20021;-91
2021/12/23 00:16:41;;;;;;;38.25;23.90;;;;;;;-2.51;92.48;101688.53;5052360;28;20424;-84
2021/12/23 00:19:19;;;;;;;41.05;23.70;;;;;;;-2.89;92.22;101633.56;5051919;28;20025;-80
2021/12/23 00:24:29;;;;;;;38.55;24.40;;;;;;;-2.61;92.29;101679.19;5052369;28;20087;-79
2021/12/23 00:26:54;;;;;;;41.40;25.23;;;;;;;-2.65;91.77;101680.88;5052157;28;20021;-85
2021/12/23 00:29:19;;;;;;;39.88;24.50;;;;;;;-2.74;92.56;101673.25;5034740;28;20476;-82
2021/12/23 00:31:45;;;;;;;37.63;24.35;;;;;;;-2.65;92.06;101675.81;5051810;28;20017;-92
2021/12/23 00:34:10;;;;;;;43.55;25.48;;;;;;;-2.76;92.26;101641.19;5033797;28;20481;-89
2021/12/23 00:36:37;;;;;;;43.70;25.55;;;;;;;-2.60;92.14;101656.44;5051722;28;20017;-88
2021/12/23 00:39:05;;;;;;;43.08;24.95;;;;;;;-2.56;92.05;101653.94;5052754;28;20021;-93
2021/12/23 00:41:31;;;;;;;44.95;24.65;;;;;;;-2.53;92.20;101656.50;5055807;28;20381;-87
2021/12/23 00:43:57;;;;;;;39.00;24.48;;;;;;;-2.74;92.19;101627.75;5037318;28;20036;-90
2021/12/23 00:46:23;;;;;;;38.58;24.67;;;;;;;-2.50;92.54;101669.13;5055635;28;20379;-91
2021/12/23 00:48:48;;;;;;;42.95;25.23;;;;;;;-2.48;91.65;101664.91;5037054;28;20123;-83
2021/12/23 00:51:14;;;;;;;40.78;24.17;;;;;;;-2.45;91.76;101662.44;5055260;28;20074;-86
2021/12/23 00:53:40;;;;;;;39.47;24.73;;;;;;;-2.43;91.70;101655.69;5037376;28;20464;-85
2021/12/23 00:56:10;;;;;;;41.00;24.15;;;;;;;-2.63;91.27;101610.94;5055244;28;20029;-93
2021/12/23 00:58:35;;;;;;;36.15;23.55;;;;;;;-2.39;90.90;101649.78;5055243;28;20486;-90
2021/12/23 01:01:01;;;;;;;42.60;24.63;;;;;;;-2.55;90.87;101618.56;5054994;28;20076;-92
2021/12/23 01:03:27;;;;;;;44.78;25.58;;;;;;;-2.39;90.70;101649.78;5055145;28;20103;-87
2021/12/23 01:05:53;;;;;;;37.88;24.17;;;;;;;-2.39;90.81;101654.84;5055064;28;20098;-76
2021/12/23 01:08:19;;;;;;;40.88;25.17;;;;;;;-2.51;90.28;101634.56;5055313;28;20494;-88
2021/12/23 01:10:49;;;;;;;39.80;24.02;;;;;;;-2.40;90.51;101671.69;5054946;28;20017;-86
2021/12/23 01:13:14;;;;;;;41.30;23.80;;;;;;;-2.48;90.43;101657.34;5054943;28;20380;-86
2021/12/23 01:15:59;;;;;;;40.90;24.73;;;;;;;-2.60;90.70;101617.69;5055154;28;20017;-81
2021/12/23 01:18:29;;;;;;;40.03;24.70;;;;;;;-2.37;90.45;101643.88;5054687;28;20047;-89
2021/12/23 01:21:03;;;;;;;40.58;24.23;;;;;;;-2.35;90.17;101641.38;5037764;28;20050;-85
2021/12/23 01:23:30;;;;;;;40.95;23.20;;;;;;;-2.33;90.40;101640.53;5056145;28;20063;-85
2021/12/23 01:25:56;;;;;;;39.60;25.23;;;;;;;-2.45;90.64;101604.25;5056607;28;20029;-78
2021/12/23 01:28:22;;;;;;;42.17;25.10;;;;;;;-2.25;90.49;101617.81;5055588;28;20396;-78
2021/12/23 01:30:47;;;;;;;39.05;24.10;;;;;;;-2.22;89.75;101619.50;5056508;28;20043;-83
2021/12/23 01:33:13;;;;;;;42.40;24.73;;;;;;;-2.37;89.63;101594.97;5056339;28;20029;-92
2021/12/23 01:35:39;;;;;;;38.17;23.45;;;;;;;-2.17;90.08;101622.84;5055878;28;20063;-89
2021/12/23 01:38:05;;;;;;;42.53;24.05;;;;;;;-2.25;89.44;101604.31;5056911;28;20036;-90
2021/12/23 01:40:31;;;;;;;42.28;25.25;;;;;;;-2.15;89.65;101616.13;5056478;28;20021;-91
2021/12/23 01:42:57;;;;;;;44.38;25.00;;;;;;;-2.18;89.36;101606.84;5057438;28;20028;-85
2021/12/23 01:45:29;;;;;;;42.67;24.52;;;;;;;-2.16;89.21;101611.91;5057694;28;20052;-92
2021/12/23 01:47:56;;;;;;;38.65;24.25;;;;;;;-2.36;89.26;101569.72;5054954;28;20082;-87
2021/12/23 01:50:26;;;;;;;41.33;25.67;;;;;;;-2.15;89.32;101599.28;5053701;28;20033;-92
2021/12/23 01:52:52;;;;;;;39.47;25.70;;;;;;;-2.13;89.28;101596.72;5054482;28;20036;-89
2021/12/23 01:55:18;;;;;;;41.95;25.13;;;;;;;-2.31;89.07;101565.50;5054281;28;20385;-91
2021/12/23 01:57:44;;;;;;;40.10;24.65;;;;;;;-2.14;89.02;101597.59;5054187;28;20362;-87
2021/12/23 02:00:13;;;;;;;40.97;24.70;;;;;;;-2.39;88.78;101552.00;5054139;28;20029;-82
2021/12/23 02:02:39;;;;;;;40.22;25.30;;;;;;;-2.20;88.67;101579.84;5053749;28;20108;-87
2021/12/23 02:05:06;;;;;;;42.63;25.30;;;;;;;-2.45;88.57;101539.34;5054494;28;20045;-91
2021/12/23 02:07:31;;;;;;;45.05;26.00;;;;;;;-2.33;89.28;101568.88;5054943;28;20158;-91
2021/12/23 02:09:57;;;;;;;42.25;25.05;;;;;;;-2.54;89.38;101544.38;5053956;28;20233;-85
2021/12/23 02:12:24;;;;;;;43.60;25.00;;;;;;;-2.37;89.22;101577.28;5054014;28;20039;-88
2021/12/23 02:14:49;;;;;;;43.25;26.60;;;;;;;-2.61;89.27;101540.16;5053897;28;20017;-91
2021/12/23 02:17:15;;;;;;;41.13;25.85;;;;;;;-2.43;89.47;101568.00;5053591;28;20087;-90
2021/12/23 02:19:40;;;;;;;41.33;26.20;;;;;;;-2.46;89.81;101564.59;5053561;28;20484;-86
2021/12/23 02:22:05;;;;;;;41.67;24.20;;;;;;;-2.86;89.58;101510.56;5053703;28;20021;-91
2021/12/23 02:24:31;;;;;;;42.33;25.48;;;;;;;-2.62;89.89;101544.34;5035424;28;20151;-82
2021/12/23 02:26:56;;;;;;;41.33;24.98;;;;;;;-2.57;89.76;101563.75;5053628;28;20104;-91
2021/12/23 02:29:22;;;;;;;41.40;25.85;;;;;;;-2.62;89.70;101557.00;5035382;28;20037;-88
2021/12/23 02:31:49;;;;;;;42.03;25.33;;;;;;;-2.65;90.17;101554.47;5053451;28;20044;-81
2021/12/23 02:34:19;;;;;;;41.55;25.50;;;;;;;-2.85;90.29;101540.94;5053502;28;20029;-86
2021/12/23 02:36:53;;;;;;;42.17;25.20;;;;;;;-2.69;90.58;101564.56;5053506;28;20037;-92
2021/12/23 02:39:20;;;;;;;45.25;25.75;;;;;;;-2.72;90.41;101577.19;5053281;28;20384;-81
2021/12/23 02:41:46;;;;;;;40.78;25.52;;;;;;;-2.78;90.28;101565.38;5053173;28;20025;-86
2021/12/23 02:44:12;;;;;;;37.95;23.80;;;;;;;-2.79;90.07;101568.72;5053274;28;20051;-86
2021/12/23 02:46:37;;;;;;;45.35;26.25;;;;;;;-2.77;90.52;101569.56;5053415;28;20033;-88
2021/12/23 02:49:03;;;;;;;42.58;24.77;;;;;;;-2.74;90.14;101567.09;5053008;28;20071;-87
2021/12/23 02:51:28;;;;;;;45.33;24.80;;;;;;;-2.81;90.26;101557.78;5053112;28;20036;-88
2021/12/23 02:53:54;;;;;;;43.45;25.52;;;;;;;-2.81;90.27;101562.00;5052009;28;20096;-85
2021/12/23 02:56:20;;;;;;;41.42;23.83;;;;;;;-2.86;90.40;101551.00;5053008;28;20033;-83
2021/12/23 02:58:45;;;;;;;47.00;25.75;;;;;;;-2.95;90.81;101546.75;5053113;28;20029;-85
2021/12/23 03:01:13;;;;;;;39.95;23.42;;;;;;;-3.01;91.00;101534.13;5052750;28;20080;-88
2021/12/23 03:03:38;;;;;;;42.35;24.42;;;;;;;-3.06;90.98;101529.03;5051822;28;20025;-88
2021/12/23 03:06:04;;;;;;;39.72;24.23;;;;;;;-3.12;90.67;101516.41;5052595;28;20036;-89
2021/12/23 03:08:56;;;;;;;45.08;24.25;;;;;;;-3.17;91.40;101521.41;5053021;28;20025;-91
2021/12/23 03:11:24;;;;;;;42.63;24.25;;;;;;;-3.40;91.13;101492.69;4972399;28;20126;-85
2021/12/23 03:13:51;;;;;;;39.72;23.25;;;;;;;-3.27;91.50;101517.16;4972374;28;20039;-90
2021/12/23 03:16:24;;;;;;;38.75;24.67;;;;;;;-3.31;91.64;101517.16;4972030;28;20119;-92
2021/12/23 03:18:50;;;;;;;41.65;23.98;;;;;;;-3.34;91.68;101515.47;4972831;28;20108;-87
2021/12/23 03:21:15;;;;;;;41.40;23.35;;;;;;;-3.35;91.91;101516.25;4971813;28;20467;-88
2021/12/23 03:23:41;;;;;;;41.25;22.80;;;;;;;-3.54;92.07;101489.22;4972080;28;20089;-84
2021/12/23 03:26:07;;;;;;;42.28;25.30;;;;;;;-3.57;92.05;101487.53;4971982;28;20121;-83
2021/12/23 03:28:32;;;;;;;41.15;24.05;;;;;;;-3.49;91.75;101492.63;4971881;28;20046;-86
2021/12/23 03:30:58;;;;;;;46.08;23.48;;;;;;;-3.52;91.92;101490.09;4971652;28;20047;-83
2021/12/23 03:33:24;;;;;;;43.45;24.38;;;;;;;-3.54;92.08;101496.81;4971788;28;20026;-81
2021/12/23 03:35:49;;;;;;;40.55;23.58;;;;;;;-3.58;92.32;101488.38;4971733;28;20126;-84
2021/12/23 03:38:15;;;;;;;41.30;23.20;;;;;;;-3.69;92.51;101477.38;4971747;28;20046;-82
2021/12/23 03:40:41;;;;;;;46.25;25.50;;;;;;;-3.65;92.46;101494.22;4971634;28;20031;-92
2021/12/23 03:43:07;;;;;;;45.65;24.55;;;;;;;-3.89;92.64;101434.38;4971776;28;20041;-79
2021/12/23 03:45:32;;;;;;;42.90;23.95;;;;;;;-3.96;92.74;101416.66;4971869;28;20045;-88
2021/12/23 03:47:57;;;;;;;43.33;24.65;;;;;;;-3.71;92.47;101445.41;4999187;28;20087;-85
2021/12/23 03:50:25;;;;;;;44.20;24.92;;;;;;;-3.79;93.41;101418.44;5052687;28;20029;-81
2021/12/23 03:52:51;;;;;;;44.97;23.70;;;;;;;-3.69;93.06;101436.16;5052388;28;20376;-85
2021/12/23 03:55:17;;;;;;;44.53;24.00;;;;;;;-3.77;93.19;101406.69;5034504;28;20079;-91
2021/12/23 03:57:43;;;;;;;48.20;25.02;;;;;;;-3.62;93.50;101423.59;5052238;28;20032;-89
2021/12/23 04:00:12;;;;;;;43.10;25.05;;;;;;;-3.58;93.40;101422.75;5052343;28;20029;-90
2021/12/23 04:02:37;;;;;;;44.20;24.67;;;;;;;-3.52;93.31;101429.53;5052039;28;20087;-91
2021/12/23 04:05:06;;;;;;;47.30;26.42;;;;;;;-3.48;93.24;101431.22;5052452;28;20025;-92
2021/12/23 04:07:32;;;;;;;42.70;24.90;;;;;;;-3.48;93.11;101428.69;5052213;28;20033;-86
2021/12/23 04:09:57;;;;;;;45.88;23.60;;;;;;;-3.49;92.97;101420.25;5052168;28;20033;-91
2021/12/23 04:12:22;;;;;;;44.25;25.20;;;;;;;-3.79;93.25;101370.50;5052350;28;20032;-91
2021/12/23 04:14:48;;;;;;;45.70;25.42;;;;;;;-3.48;92.91;101414.38;5054193;28;20064;-92
2021/12/23 04:17:13;;;;;;;47.58;25.63;;;;;;;-3.47;92.88;101423.63;5037916;28;20025;-93
2021/12/23 04:19:39;;;;;;;44.88;25.38;;;;;;;-3.42;93.00;101425.34;5056059;28;20025;-86
2021/12/23 04:22:04;;;;;;;44.38;25.13;;;;;;;-3.37;93.37;101438.81;5055823;28;20037;-85
2021/12/23 04:24:29;;;;;;;48.28;27.10;;;;;;;-3.34;93.71;101428.72;5055845;28;20070;-89
2021/12/23 04:26:55;;;;;;;51.92;28.48;;;;;;;-3.28;93.42;101411.91;5055948;28;20056;-89
2021/12/23 04:29:20;;;;;;;51.85;28.83;;;;;;;-3.24;93.79;101410.28;5055571;28;20220;-83
2021/12/23 04:31:45;;;;;;;51.90;29.00;;;;;;;-3.19;93.64;101406.06;5055592;28;20100;-87
2021/12/23 04:34:11;;;;;;;54.85;28.35;;;;;;;-3.26;93.41;101386.66;5055842;28;20045;-89
2021/12/23 04:36:36;;;;;;;54.95;28.80;;;;;;;-3.12;93.55;101414.50;5055648;28;20071;-89
2021/12/23 04:39:03;;;;;;;55.28;28.83;;;;;;;-3.05;93.30;101396.81;5055594;28;20100;-89
2021/12/23 04:41:30;;;;;;;58.72;29.85;;;;;;;-3.03;93.31;101387.59;5055548;28;20059;-89
2021/12/23 04:43:56;;;;;;;55.70;30.02;;;;;;;-3.12;93.11;101354.72;5055540;28;20151;-89
2021/12/23 04:46:22;;;;;;;55.63;30.15;;;;;;;-2.87;92.84;101380.84;5055566;28;20111;-88
2021/12/23 04:48:47;;;;;;;57.28;30.17;;;;;;;-2.81;92.53;101383.38;5055367;28;20021;-91
2021/12/23 04:51:14;;;;;;;57.03;30.58;;;;;;;-3.08;92.40;101325.25;5055425;28;20107;-86
2021/12/23 04:53:40;;;;;;;57.15;30.95;;;;;;;-2.70;91.99;101389.28;5055973;28;20044;-91
2021/12/23 04:56:05;;;;;;;58.58;31.13;;;;;;;-2.70;92.03;101371.59;5055313;28;20028;-90
2021/12/23 04:58:31;;;;;;;60.30;30.83;;;;;;;-2.72;91.66;101362.34;5055018;28;20051;-87
2021/12/23 05:00:56;;;;;;;53.70;30.13;;;;;;;-2.58;91.57;101373.28;5037210;28;20045;-88
2021/12/23 05:03:24;;;;;;;57.80;30.77;;;;;;;-2.53;91.65;101364.00;5055244;28;20035;-86
2021/12/23 05:05:50;;;;;;;57.17;29.75;;;;;;;-2.48;91.68;101369.06;5055106;28;20499;-90
2021/12/23 05:08:16;;;;;;;61.42;31.48;;;;;;;-2.43;90.87;101362.31;5054759;28;20025;-87
2021/12/23 05:10:42;;;;;;;61.67;31.20;;;;;;;-2.38;90.69;101358.94;5055019;28;20457;-88
2021/12/23 05:13:08;;;;;;;53.95;30.73;;;;;;;-2.33;90.71;101353.88;5055169;28;20032;-86
2021/12/23 05:15:34;;;;;;;54.28;30.80;;;;;;;-2.32;90.96;101353.03;5055018;28;20029;-87
2021/12/23 05:18:00;;;;;;;58.67;29.77;;;;;;;-2.29;90.62;101365.66;5036938;28;20125;-84
2021/12/23 05:20:27;;;;;;;57.92;31.55;;;;;;;-2.27;90.56;101368.19;5054999;28;20036;-89
2021/12/23 05:22:52;;;;;;;63.15;33.13;;;;;;;-2.28;90.52;101361.44;5054910;28;20090;-85
2021/12/23 05:25:18;;;;;;;56.67;29.75;;;;;;;-2.22;90.35;101358.91;5053852;28;20021;-81
2021/12/23 05:27:44;;;;;;;55.53;31.00;;;;;;;-2.22;90.43;101352.16;5054659;28;20025;-85
2021/12/23 05:30:14;;;;;;;56.13;30.88;;;;;;;-2.19;90.51;101349.63;5054713;28;20104;-88
2021/12/23 05:32:42;;;;;;;56.93;30.97;;;;;;;-2.16;90.49;101341.22;5054691;28;20025;-80
2021/12/23 05:35:09;;;;;;;54.22;30.40;;;;;;;-2.15;90.33;101350.47;5054736;28;20469;-82
2021/12/23 05:37:34;;;;;;;55.75;31.40;;;;;;;-2.14;90.23;101349.63;5054273;28;20069;-90
2021/12/23 05:39:59;;;;;;;55.05;30.55;;;;;;;-2.13;90.40;101336.13;5054553;28;20052;-86
2021/12/23 05:42:25;;;;;;;58.88;31.85;;;;;;;-2.12;89.91;101328.53;5054649;28;20021;-86
2021/12/23 05:44:53;;;;;;;58.78;30.83;;;;;;;-2.09;90.15;101336.09;5054568;28;20111;-87
2021/12/23 05:47:18;;;;;;;59.25;31.95;;;;;;;-2.29;90.18;101302.44;5054527;28;20071;-80
2021/12/23 05:49:47;;;;;;;63.13;32.00;;;;;;;-2.20;90.20;101315.06;5054401;28;20465;-85
2021/12/23 05:52:12;;;;;;;56.67;31.92;;;;;;;-2.23;90.19;101325.19;5054396;28;20078;-89
2021/12/23 05:54:37;;;;;;;57.88;31.58;;;;;;;-2.61;90.52;101272.16;5054217;28;20025;-82
2021/12/23 05:57:03;;;;;;;58.97;32.30;;;;;;;-2.32;90.73;101322.69;5054280;28;20033;-83
2021/12/23 05:59:33;;;;;;;60.97;32.35;;;;;;;-2.36;90.93;101328.56;5054331;28;20022;-91
2021/12/23 06:02:00;;;;;;;59.55;31.17;;;;;;;-2.40;91.07;101334.50;5054836;28;20051;-80
2021/12/23 06:04:25;;;;;;;61.25;32.45;;;;;;;-2.43;91.36;101330.28;5054372;28;20142;-81
2021/12/23 06:06:51;;;;;;;60.45;32.38;;;;;;;-2.46;91.25;101331.97;5054198;28;20560;-85
2021/12/23 06:09:17;;;;;;;61.97;33.17;;;;;;;-2.48;91.67;101326.06;5054111;28;20025;-85
2021/12/23 06:11:42;;;;;;;60.03;33.60;;;;;;;-2.49;91.53;101327.75;5054158;28;20017;-84
2021/12/23 06:14:07;;;;;;;63.10;33.70;;;;;;;-2.51;91.66;101331.13;5054599;28;20025;-82
2021/12/23 06:16:33;;;;;;;61.55;33.10;;;;;;;-2.49;91.70;101319.34;5035884;28;20119;-91
2021/12/23 06:18:58;;;;;;;63.03;33.58;;;;;;;-2.41;91.59;101320.16;5035864;28;20025;-84
2021/12/23 06:21:27;;;;;;;61.30;32.60;;;;;;;-2.36;91.31;101324.38;5054210;28;20362;-84
2021/12/23 06:23:53;;;;;;;63.95;32.85;;;;;;;-2.34;91.40;101314.25;5053941;28;20029;-85
2021/12/23 06:26:18;;;;;;;59.63;33.58;;;;;;;-2.31;90.82;101299.91;5053862;28;20025;-77
2021/12/23 06:28:44;;;;;;;61.67;33.58;;;;;;;-2.44;91.02;101265.38;5053949;28;20025;-81
2021/12/23 06:31:09;;;;;;;66.72;34.22;;;;;;;-2.29;90.89;101287.25;5053553;28;20029;-82
2021/12/23 06:33:35;;;;;;;69.03;34.55;;;;;;;-2.29;90.92;101279.66;5053498;28;20051;-81
2021/12/23 06:36:00;;;;;;;64.45;34.30;;;;;;;-2.31;91.23;101277.13;5053270;28;20040;-89
2021/12/23 06:38:26;;;;;;;62.55;32.75;;;;;;;-2.32;91.16;101285.56;5053250;28;20056;-83
2021/12/23 06:40:51;;;;;;;61.00;33.78;;;;;;;-2.34;91.11;101282.22;5053282;28;20029;-82
2021/12/23 06:43:17;;;;;;;61.13;34.22;;;;;;;-2.36;91.06;101278.84;5053412;28;20020;-87
2021/12/23 06:45:42;;;;;;;67.88;34.25;;;;;;;-2.37;91.43;101276.31;5053252;28;20029;-77
2021/12/23 06:48:07;;;;;;;63.90;33.00;;;;;;;-2.46;91.57;101251.91;5053423;28;20051;-81
2021/12/23 06:50:33;;;;;;;62.20;32.45;;;;;;;-2.28;91.16;101255.22;5052994;28;20028;-78
2021/12/23 06:52:58;;;;;;;56.80;31.00;;;;;;;-2.29;90.82;101243.41;5053132;28;20055;-75
2021/12/23 06:55:24;;;;;;;59.55;32.22;;;;;;;-2.31;91.09;101230.78;5053565;28;20086;-82
2021/12/23 06:57:56;;;;;;;60.75;32.03;;;;;;;-2.24;90.94;101237.50;5053251;28;20029;-82
2021/12/23 07:00:23;;;;;;;59.58;32.22;;;;;;;-2.05;90.92;101263.56;5053312;28;20112;-80
2021/12/23 07:02:49;;;;;;;61.72;31.20;;;;;;;-2.00;90.62;101276.19;5052814;28;20053;-80
2021/12/23 07:05:15;;;;;;;58.00;31.45;;;;;;;-1.95;90.63;101282.09;5052623;28;20511;-84
2021/12/23 07:10:28;;;;;;;62.45;31.60;;;;;;;-1.98;90.07;101261.84;5011418;28;20405;-76
2021/12/23 07:12:56;;;;;;;61.97;32.30;;;;;;;-1.83;89.59;101282.03;5011210;28;20560;-79
2021/12/23 07:15:23;;;;;;;60.70;32.33;;;;;;;-1.80;89.50;101280.31;5011053;28;20541;-81
2021/12/23 07:17:49;;;;;;;58.80;30.23;;;;;;;-1.76;89.95;101279.47;5010530;28;20157;-85
2021/12/23 07:20:14;;;;;;;61.10;31.52;;;;;;;-1.72;90.01;101270.16;5011106;28;20138;-83
2021/12/23 07:22:41;;;;;;;58.72;31.65;;;;;;;-1.69;89.92;101266.75;5011058;28;20092;-84
2021/12/23 07:25:07;;;;;;;59.92;30.70;;;;;;;-1.72;89.62;101267.63;5011160;28;20026;-86
2021/12/23 07:27:32;;;;;;;56.83;29.40;;;;;;;-1.83;89.83;101249.97;5011635;28;20042;-83
2021/12/23 07:29:57;;;;;;;61.90;30.98;;;;;;;-1.61;90.09;101280.22;5010968;28;20847;-83
2021/12/23 07:32:23;;;;;;;56.60;28.85;;;;;;;-1.71;89.93;101266.75;5010648;28;20053;-81
2021/12/23 07:34:48;;;;;;;59.15;30.50;;;;;;;-1.56;89.93;101284.41;5010686;28;20045;-80
2021/12/23 07:37:13;;;;;;;57.60;29.52;;;;;;;-1.59;89.89;101274.28;5010912;28;20045;-80
2021/12/23 07:39:39;;;;;;;58.35;29.50;;;;;;;-1.54;89.50;101271.75;5010638;28;20091;-78
2021/12/23 07:42:06;;;;;;;52.60;28.15;;;;;;;-1.53;89.32;101270.88;5010765;28;20723;-80
2021/12/23 07:44:33;;;;;;;53.95;29.27;;;;;;;-1.59;89.78;101265.84;4993399;28;20129;-76
2021/12/23 07:46:58;;;;;;;57.63;28.92;;;;;;;-1.49;90.10;101288.56;5022960;28;20064;-77
2021/12/23 07:49:27;;;;;;;56.45;29.52;;;;;;;-1.71;89.68;101241.44;5054415;28;20056;-78
2021/12/23 07:51:53;;;;;;;56.95;29.63;;;;;;;-1.41;89.54;101285.16;5056628;28;20422;-79
2021/12/23 07:54:18;;;;;;;58.30;29.02;;;;;;;-1.54;89.53;101246.41;5056330;28;20024;-81
2021/12/23 07:56:44;;;;;;;54.88;27.92;;;;;;;-1.42;89.46;101259.00;5056444;28;20032;-77
2021/12/23 07:59:09;;;;;;;54.40;27.67;;;;;;;-1.54;89.34;101237.13;5056405;28;20355;-77
2021/12/23 08:01:35;;;;;;;53.50;27.85;;;;;;;-1.69;89.19;101216.13;5050383;28;20159;-78
2021/12/23 08:04:00;;;;;;;56.63;28.15;;;;;;;-1.51;89.00;101237.09;5036252;28;20223;-75
2021/12/23 08:06:26;;;;;;;60.17;29.70;;;;;;;-1.59;89.14;101215.19;5036374;28;20017;-76
2021/12/23 08:08:54;;;;;;;56.83;28.67;;;;;;;-1.48;89.11;101242.13;5036221;28;20557;-76
2021/12/23 08:11:20;;;;;;;53.75;28.23;;;;;;;-1.40;89.07;101242.09;5036682;28;20079;-75
2021/12/23 08:13:45;;;;;;;54.70;28.48;;;;;;;-1.40;89.26;101233.66;5036294;28;20021;-74
2021/12/23 08:16:11;;;;;;;55.95;28.15;;;;;;;-1.21;89.12;101260.53;5036139;28;20037;-77
2021/12/23 08:18:36;;;;;;;56.42;27.77;;;;;;;-1.17;89.05;101263.03;5036303;28;20037;-77
2021/12/23 08:21:02;;;;;;;54.15;28.48;;;;;;;-1.16;88.74;101264.72;5018247;28;20052;-74
2021/12/23 08:23:28;;;;;;;50.22;27.27;;;;;;;-1.35;88.44;101226.88;5036141;28;20022;-75
2021/12/23 08:25:55;;;;;;;51.50;28.10;;;;;;;-1.11;88.86;101258.75;5035986;28;20037;-76
2021/12/23 08:28:21;;;;;;;53.97;27.42;;;;;;;-1.08;88.91;101257.06;5035886;28;20029;-75
2021/12/23 08:30:47;;;;;;;61.97;29.48;;;;;;;-1.16;88.92;101225.88;5035926;28;20525;-76
2021/12/23 08:33:12;;;;;;;55.13;29.48;;;;;;;-1.03;89.03;101240.09;5035949;28;20105;-76
2021/12/23 08:35:38;;;;;;;57.53;29.50;;;;;;;-1.20;89.22;101198.84;5017615;28;20083;-80
2021/12/23 08:38:05;;;;;;;57.05;28.70;;;;;;;-1.07;88.98;101225.78;5035586;28;20035;-79
2021/12/23 08:40:32;;;;;;;54.67;28.02;;;;;;;-0.91;88.33;101237.44;5035558;28;20440;-75
2021/12/23 08:42:58;;;;;;;55.05;28.70;;;;;;;-1.16;88.02;101192.94;5034395;28;20065;-77
2021/12/23 08:45:28;;;;;;;52.35;28.17;;;;;;;-0.88;88.37;101231.53;5035735;28;20021;-79
2021/12/23 08:47:57;;;;;;;55.60;28.52;;;;;;;-0.89;88.52;101215.44;5035405;28;20030;-76
2021/12/23 08:50:25;;;;;;;55.08;28.23;;;;;;;-0.80;88.59;101216.22;5035520;28;20022;-75
2021/12/23 08:52:52;;;;;;;54.72;28.77;;;;;;;-0.94;88.56;101180.88;5035594;28;20072;-77
2021/12/23 08:55:21;;;;;;;55.53;28.35;;;;;;;-0.80;87.92;101193.41;5035573;28;20390;-76
2021/12/23 08:57:47;;;;;;;53.63;27.75;;;;;;;-0.69;87.98;101197.53;5035224;28;20466;-76
2021/12/23 09:00:16;;;;;;;51.20;27.33;;;;;;;-0.77;88.04;101176.47;5035476;28;20036;-78
2021/12/23 09:02:42;;;;;;;56.60;28.10;;;;;;;-0.60;87.99;101194.88;5035109;28;20049;-78
2021/12/23 09:05:08;;;;;;;54.35;28.48;;;;;;;-0.88;87.65;101150.41;5033958;28;20550;-79
2021/12/23 09:07:34;;;;;;;51.85;26.35;;;;;;;-0.63;87.88;101183.94;5035309;28;20105;-81
2021/12/23 09:10:05;;;;;;;53.83;28.88;;;;;;;-0.43;87.40;101204.00;5035160;28;20077;-81
2021/12/23 09:12:31;;;;;;;53.05;27.38;;;;;;;-0.43;87.48;101193.84;5035388;28;20021;-81
2021/12/23 09:14:56;;;;;;;50.53;28.30;;;;;;;-0.28;87.21;101197.91;5035437;28;20504;-83
2021/12/23 09:17:22;;;;;;;49.50;25.95;;;;;;;-0.40;86.90;101171.81;5034948;28;20025;-80
2021/12/23 09:19:47;;;;;;;50.33;29.13;;;;;;;-0.21;86.92;101192.72;5034927;28;20033;-82
2021/12/23 09:22:14;;;;;;;47.13;27.42;;;;;;;-0.36;86.50;101162.47;5035109;28;20017;-79
2021/12/23 09:24:44;;;;;;;48.45;26.42;;;;;;;-0.15;86.34;101201.97;5034788;28;20026;-81
2021/12/23 09:27:55;;;;;;;49.20;28.50;;;;;;;-0.16;86.11;101201.13;5034981;28;20028;-81
2021/12/23 09:33:00;;;;;;;48.55;25.88;;;;;;;-0.19;86.38;101191.03;5035171;28;19928;-83
2021/12/23 09:35:28;;;;;;;49.95;27.35;;;;;;;-0.37;86.71;101166.72;5016668;28;20121;-83
2021/12/23 09:37:53;;;;;;;51.33;27.30;;;;;;;-0.18;86.38;101192.69;5034749;28;20036;-83
2021/12/23 09:40:19;;;;;;;49.42;27.10;;;;;;;-0.14;86.47;101188.41;5034416;28;20481;-82
2021/12/23 09:42:46;;;;;;;48.17;27.15;;;;;;;-0.12;86.48;101184.16;5034501;28;20497;-83
2021/12/23 09:45:16;;;;;;;52.17;27.85;;;;;;;-0.09;86.50;101179.06;5034628;28;20026;-83
2021/12/23 09:47:42;;;;;;;53.40;28.15;;;;;;;-0.09;86.53;101164.66;5034573;28;20072;-82
2021/12/23 09:50:11;;;;;;;52.67;28.45;;;;;;;-0.25;86.00;101127.66;5033429;28;20090;-82
2021/12/23 09:52:43;;;;;;;46.75;27.30;;;;;;;0.07;86.05;101155.09;5034293;28;20030;-85
2021/12/23 09:55:11;;;;;;;51.03;27.08;;;;;;;0.08;85.74;101158.47;5034122;28;20029;-82
2021/12/23 09:57:36;;;;;;;50.53;29.25;;;;;;;-0.11;86.16;101122.38;5033987;28;20022;-81
2021/12/23 10:00:05;;;;;;;53.70;28.42;;;;;;;0.09;86.19;101144.91;5034401;28;20017;-77
2021/12/23 10:02:30;;;;;;;50.80;27.65;;;;;;;0.15;85.71;101153.28;5034121;28;20090;-83
2021/12/23 10:04:56;;;;;;;52.38;28.63;;;;;;;0.09;85.63;101140.69;5034133;28;20025;-84
2021/12/23 10:07:21;;;;;;;54.38;28.35;;;;;;;0.16;85.51;101147.34;5034053;28;20037;-80
2021/12/23 10:10:00;;;;;;;51.63;26.77;;;;;;;0.16;85.65;101146.50;5034059;28;20033;-82
2021/12/23 10:31:51;;;;;;;50.47;27.13;;;;;;;0.73;84.73;101100.69;5033910;28;20396;-82
2021/12/23 10:37:16;;;;;;;48.47;25.33;;;;;;;0.80;85.07;101081.94;4972603;28;20051;-80
2021/12/23 10:39:53;;;;;;;55.05;27.02;;;;;;;0.86;84.88;101071.63;4972599;28;20043;-82
2021/12/23 10:42:22;;;;;;;51.10;26.23;;;;;;;0.94;84.52;101071.50;4972406;28;20038;-81
2021/12/23 10:45:11;;;;;;;52.83;26.73;;;;;;;0.89;84.48;101043.63;4972621;28;20034;-82
2021/12/23 10:47:47;;;;;;;52.40;26.88;;;;;;;1.03;83.88;101067.06;4972430;28;20392;-83
2021/12/23 10:50:16;;;;;;;47.78;25.63;;;;;;;1.07;84.19;101063.56;4972334;28;20026;-81
2021/12/23 10:53:02;;;;;;;49.97;26.13;;;;;;;0.86;84.21;101020.78;4972456;28;20027;-80
2021/12/23 10:58:03;;;;;;;48.70;26.48;;;;;;;1.14;84.69;101052.41;4972139;28;20049;-81
2021/12/23 11:00:35;;;;;;;47.38;24.50;;;;;;;0.67;84.50;100954.22;4972329;28;20102;-81
2021/12/23 11:03:16;;;;;;;49.25;25.55;;;;;;;1.08;84.31;101011.00;4972048;28;20178;-80
2021/12/23 11:05:49;;;;;;;50.78;25.70;;;;;;;1.25;84.48;101031.84;4972196;28;20081;-83
2021/12/23 11:38:36;;;;;;;50.25;25.95;;;;;;;1.62;84.61;100952.13;4991145;28;20121;-78
2021/12/23 11:41:16;;;;;;;42.95;23.77;;;;;;;1.90;84.67;100976.06;4991199;28;20050;-77
2021/12/23 11:43:51;;;;;;;45.88;23.45;;;;;;;1.63;83.93;100925.81;4990901;28;20121;-78
2021/12/23 11:46:22;;;;;;;47.25;24.35;;;;;;;1.79;83.61;100927.13;4990942;28;20474;-80
2021/12/23 11:48:52;;;;;;;47.60;25.33;;;;;;;1.82;83.57;100921.09;4974722;28;20124;-79
2021/12/23 11:54:15;;;;;;;47.70;23.85;;;;;;;2.06;83.85;100929.81;4952510;29;20099;-83
2021/12/23 11:56:45;;;;;;;45.22;23.05;;;;;;;2.27;83.78;100944.53;4952469;29;20074;-80
2021/12/23 11:59:13;;;;;;;45.00;23.90;;;;;;;2.17;83.59;100915.09;4952027;29;20050;-79
2021/12/23 12:01:53;;;;;;;43.53;23.88;;;;;;;2.21;83.99;100906.47;4952158;28;20054;-79
2021/12/23 12:04:26;;;;;;;49.17;24.52;;;;;;;2.43;83.78;100934.75;4952366;28;20039;-81
2021/12/23 12:06:53;;;;;;;40.78;23.33;;;;;;;2.46;83.86;100922.78;4967487;28;20414;-75
2021/12/23 12:09:20;;;;;;;43.50;22.98;;;;;;;2.47;83.75;100915.97;4990894;28;20041;-76
2021/12/23 12:12:02;;;;;;;45.05;24.35;;;;;;;2.47;83.74;100919.34;4990752;28;20042;-81
2021/12/23 12:14:34;;;;;;;46.28;25.95;;;;;;;2.48;83.73;100910.81;4990724;28;20494;-78
2021/12/23 12:17:27;;;;;;;46.80;24.77;;;;;;;2.53;84.49;100913.22;4990609;28;20487;-77